createdAt,value
2022-08-20T00:02:54.865Z,11.00
2022-08-20T00:07:59.422Z,11.40
2022-08-20T00:13:02.337Z,12.40
2022-08-20T00:18:05.504Z,11.60
2022-08-20T00:23:10.714Z,11.20
2022-08-20T00:28:13.702Z,12.00
2022-08-20T00:33:18.354Z,12.00
2022-08-20T00:38:22.479Z,12.00
2022-08-20T00:43:28.354Z,12.00
2022-08-20T00:48:32.952Z,11.00
2022-08-20T00:53:37.611Z,12.00
2022-08-20T00:58:41.222Z,11.60
2022-08-20T01:03:44.052Z,10.00
2022-08-20T01:08:48.253Z,11.60
2022-08-20T01:13:51.119Z,11.00
2022-08-20T01:18:53.885Z,11.00
2022-08-20T01:24:03.142Z,11.00
2022-08-20T01:29:08.671Z,10.80
2022-08-20T01:34:13.040Z,10.00
2022-08-20T01:39:19.213Z,9.60
2022-08-20T01:44:23.435Z,10.00
2022-08-20T01:49:30.345Z,11.60
2022-08-20T01:54:33.232Z,10.00
2022-08-20T01:59:37.378Z,8.60
2022-08-20T02:04:40.432Z,11.00
2022-08-20T02:09:43.253Z,9.20
2022-08-20T02:14:49.117Z,10.80
2022-08-20T02:19:52.832Z,10.00
2022-08-20T02:24:55.530Z,10.60
2022-08-20T02:29:59.713Z,8.20
2022-08-20T02:35:03.851Z,10.60
2022-08-20T02:40:07.983Z,9.20
2022-08-20T02:45:14.842Z,9.60
2022-08-20T02:50:22.483Z,9.60
2022-08-20T02:55:27.252Z,10.00
2022-08-20T03:00:38.346Z,8.80
2022-08-20T03:05:43.035Z,10.00
2022-08-20T03:10:46.932Z,10.00
2022-08-20T03:15:56.515Z,11.00
2022-08-20T03:21:01.365Z,10.00
2022-08-20T03:26:10.479Z,10.00
2022-08-20T03:31:15.354Z,10.00
2022-08-20T03:36:19.232Z,11.40
2022-08-20T03:41:25.072Z,10.00
2022-08-20T03:46:29.237Z,10.00
2022-08-20T03:51:35.138Z,9.00
2022-08-20T03:56:55.336Z,9.00
2022-08-20T04:02:00.040Z,9.00
2022-08-20T04:07:10.470Z,13.00
2022-08-20T04:12:13.513Z,15.80
2022-08-20T04:17:17.973Z,17.75
2022-08-20T04:22:21.760Z,17.00
2022-08-20T04:27:24.452Z,16.80
2022-08-20T04:32:28.551Z,18.00
2022-08-20T04:37:31.262Z,17.25
2022-08-20T04:42:34.242Z,16.20
2022-08-20T04:47:38.552Z,15.20
2022-08-20T04:52:41.476Z,17.00
2022-08-20T04:57:44.401Z,17.40
2022-08-20T05:02:49.260Z,17.40
2022-08-20T05:07:52.196Z,18.00
2022-08-20T05:12:57.097Z,17.60
2022-08-20T05:18:02.958Z,15.00
2022-08-20T05:23:05.725Z,18.00
2022-08-20T05:28:10.040Z,18.00
2022-08-20T05:33:16.723Z,18.40
2022-08-20T05:38:20.882Z,18.40
2022-08-20T05:43:24.147Z,18.40
2022-08-20T05:48:28.434Z,17.00
2022-08-20T05:53:31.391Z,21.00
2022-08-20T05:58:34.310Z,25.75
2022-08-20T06:03:55.826Z,21.00
2022-08-20T06:08:58.611Z,20.75
2022-08-20T06:14:01.485Z,20.75
2022-08-20T06:19:05.737Z,21.25
2022-08-20T06:24:08.790Z,20.75
2022-08-20T06:29:11.667Z,20.25
2022-08-20T06:34:16.667Z,19.20
2022-08-20T06:39:19.433Z,20.00
2022-08-20T06:44:22.314Z,17.00
2022-08-20T06:49:26.490Z,17.20
2022-08-20T06:54:30.684Z,19.75
2022-08-20T06:59:33.503Z,18.00
2022-08-20T07:04:38.158Z,16.80
2022-08-20T07:09:41.087Z,16.00
2022-08-20T07:14:43.876Z,17.60
2022-08-20T07:19:47.962Z,18.60
2022-08-20T07:24:50.713Z,15.00
2022-08-20T07:30:15.088Z,16.60
2022-08-20T07:35:19.775Z,15.40
2022-08-20T07:40:26.140Z,15.60
2022-08-20T07:45:29.579Z,17.00
2022-08-20T07:50:33.792Z,17.00
2022-08-20T07:55:36.562Z,18.20
2022-08-20T08:00:39.663Z,16.80
2022-08-20T08:05:45.373Z,18.00
2022-08-20T08:10:48.695Z,17.00
2022-08-20T08:16:03.509Z,16.80
2022-08-20T08:21:07.876Z,18.00
2022-08-20T08:26:17.827Z,17.80
2022-08-20T08:31:22.007Z,18.00
2022-08-20T08:36:27.322Z,17.20
2022-08-20T08:41:31.836Z,18.00
2022-08-20T08:46:40.238Z,17.00
2022-08-20T08:51:46.476Z,18.00
2022-08-20T08:56:50.404Z,18.80
2022-08-20T09:01:57.291Z,19.40
2022-08-20T09:07:02.845Z,17.00
2022-08-20T09:12:08.056Z,20.00
2022-08-20T09:17:11.053Z,17.00
2022-08-20T09:22:16.274Z,18.40
2022-08-20T09:27:19.238Z,18.40
2022-08-20T09:32:23.362Z,17.60
2022-08-20T09:37:35.120Z,17.40
2022-08-20T09:42:41.694Z,17.00
2022-08-20T09:47:56.694Z,19.60
2022-08-20T09:53:02.248Z,17.40
2022-08-20T09:58:07.609Z,19.20
2022-08-20T10:03:10.316Z,20.00
2022-08-20T10:08:14.622Z,17.60
2022-08-20T10:13:17.346Z,20.00
2022-08-20T10:18:20.687Z,20.00
2022-08-20T10:23:24.916Z,19.80
2022-08-20T10:28:27.808Z,19.20
2022-08-20T10:33:30.562Z,20.00
2022-08-20T10:38:34.875Z,16.40
2022-08-20T10:43:37.785Z,20.00
2022-08-20T10:48:40.750Z,18.80
2022-08-20T10:53:44.880Z,18.40
2022-08-20T10:58:48.246Z,19.00
2022-08-20T11:03:51.062Z,17.00
2022-08-20T11:08:57.239Z,16.80
2022-08-20T11:14:00.106Z,19.20
2022-08-20T11:19:03.169Z,21.60
2022-08-20T11:24:07.536Z,20.20
2022-08-20T11:29:10.311Z,19.60
2022-08-20T11:34:13.257Z,21.00
2022-08-20T11:39:17.586Z,17.80
2022-08-20T11:44:21.751Z,19.20
2022-08-20T11:49:24.593Z,20.60
2022-08-20T11:54:29.337Z,21.00
2022-08-20T11:59:32.198Z,21.50
2022-08-20T12:04:35.322Z,21.50
2022-08-20T12:09:41.157Z,21.25
2022-08-20T12:14:54.334Z,22.75
2022-08-20T12:19:59.404Z,21.50
2022-08-20T12:25:03.843Z,21.75
2022-08-20T12:30:08.521Z,19.60
2022-08-20T12:35:11.790Z,20.80
2022-08-20T12:40:17.338Z,18.80
2022-08-20T12:45:33.847Z,18.20
2022-08-20T12:50:36.863Z,19.50
2022-08-20T12:55:41.296Z,20.00
2022-08-20T13:00:48.524Z,23.50
2022-08-20T13:05:53.845Z,19.75
2022-08-20T13:10:58.002Z,16.80
2022-08-20T13:16:00.842Z,22.00
2022-08-20T13:21:03.626Z,16.00
2022-08-20T13:26:07.996Z,28.33
2022-08-20T13:31:10.905Z,18.60
2022-08-20T13:36:13.833Z,17.00
2022-08-20T13:41:17.974Z,21.00
2022-08-20T13:46:21.009Z,18.60
2022-08-20T13:51:23.835Z,17.60
2022-08-20T13:56:32.089Z,25.75
2022-08-20T14:01:34.982Z,23.00
2022-08-20T14:06:37.807Z,23.00
2022-08-20T14:11:42.052Z,24.00
2022-08-20T14:16:44.955Z,18.20
2022-08-20T14:21:47.863Z,23.00
2022-08-20T14:26:52.149Z,21.50
2022-08-20T14:31:55.425Z,22.25
2022-08-20T14:36:58.357Z,19.20
2022-08-20T14:42:03.559Z,20.25
2022-08-20T14:47:17.125Z,17.40
2022-08-20T14:52:20.975Z,16.20
2022-08-20T14:57:25.119Z,14.40
2022-08-20T15:02:27.981Z,15.80
2022-08-20T15:07:32.244Z,17.00
2022-08-20T15:12:37.318Z,14.40
2022-08-20T15:17:41.363Z,15.00
2022-08-20T15:22:44.319Z,16.60
2022-08-20T15:27:48.632Z,16.00
2022-08-20T15:32:54.892Z,16.20
2022-08-20T15:37:58.786Z,18.25
2022-08-20T15:43:03.895Z,15.40
2022-08-20T15:48:11.891Z,17.00
2022-08-20T15:53:21.137Z,15.00
2022-08-20T15:58:28.343Z,15.00
2022-08-20T16:03:53.093Z,14.20
2022-08-20T16:09:03.846Z,15.40
2022-08-20T16:14:15.343Z,14.80
2022-08-20T16:19:21.773Z,15.00
2022-08-20T16:24:24.806Z,19.75
2022-08-20T16:29:38.115Z,17.75
2022-08-20T16:34:43.024Z,17.00
2022-08-20T16:39:49.718Z,19.25
2022-08-20T16:44:54.839Z,16.20
2022-08-20T16:50:00.238Z,18.25
2022-08-20T16:55:03.210Z,21.50
2022-08-20T17:00:13.979Z,20.00
2022-08-20T17:05:16.896Z,22.00
2022-08-20T17:10:23.549Z,22.00
2022-08-20T17:15:28.763Z,22.00
2022-08-20T17:20:31.560Z,22.00
2022-08-20T17:25:37.656Z,22.25
2022-08-20T17:30:42.270Z,22.50
2022-08-20T17:35:52.126Z,21.25
2022-08-20T17:40:59.590Z,18.00
2022-08-20T17:46:05.176Z,18.75
2022-08-20T17:51:19.418Z,18.20
2022-08-20T17:56:24.022Z,18.00
2022-08-20T18:01:28.345Z,15.00
2022-08-20T18:06:34.361Z,14.00
2022-08-20T18:11:40.523Z,14.00
2022-08-20T18:16:47.171Z,15.00
2022-08-20T18:21:57.351Z,13.40
2022-08-20T18:27:03.373Z,18.25
2022-08-20T18:32:27.493Z,18.25
2022-08-20T18:37:31.428Z,17.00
2022-08-20T18:42:35.252Z,15.40
2022-08-20T18:47:45.127Z,17.00
2022-08-20T18:52:49.549Z,15.00
2022-08-20T18:57:54.260Z,14.00
2022-08-20T19:02:59.705Z,16.50
2022-08-20T19:08:02.515Z,15.00
2022-08-20T19:13:35.300Z,15.00
2022-08-20T19:18:42.056Z,13.00
2022-08-20T19:23:48.875Z,14.00
2022-08-20T19:28:53.622Z,14.00
2022-08-20T19:34:19.576Z,15.00
2022-08-20T19:39:25.662Z,14.20
2022-08-20T19:44:34.985Z,12.60
2022-08-20T19:49:43.207Z,14.00
2022-08-20T19:54:47.977Z,14.80
2022-08-20T19:59:55.885Z,14.00
2022-08-20T20:05:00.000Z,13.60
2022-08-20T20:10:02.817Z,14.00
2022-08-20T20:15:06.603Z,13.00
2022-08-20T20:20:21.124Z,14.80
2022-08-20T20:25:25.504Z,13.00
2022-08-20T20:30:30.446Z,13.00
2022-08-20T20:35:35.637Z,13.20
2022-08-20T20:40:45.024Z,14.00
2022-08-20T20:45:48.712Z,14.20
2022-08-20T20:50:56.292Z,15.00
2022-08-20T20:56:00.201Z,15.20
2022-08-20T21:01:03.154Z,13.00
2022-08-20T21:06:07.832Z,13.00
2022-08-20T21:11:10.963Z,14.00
2022-08-20T21:16:13.912Z,12.60
2022-08-20T21:21:18.020Z,14.40
2022-08-20T21:26:20.783Z,13.80
2022-08-20T21:31:23.655Z,14.00
2022-08-20T21:36:28.109Z,14.20
2022-08-20T21:41:30.964Z,12.00
2022-08-20T21:46:36.058Z,14.00
2022-08-20T21:51:40.169Z,19.75
2022-08-20T21:56:43.087Z,15.20
2022-08-20T22:01:45.934Z,14.80
2022-08-20T22:06:50.109Z,15.00
2022-08-20T22:11:54.671Z,17.75
2022-08-20T22:16:59.325Z,18.00
2022-08-20T22:22:03.458Z,19.25
2022-08-20T22:27:06.508Z,19.00
2022-08-20T22:32:09.333Z,21.00
2022-08-20T22:37:13.430Z,22.00
2022-08-20T22:42:16.248Z,21.75
2022-08-20T22:47:19.343Z,19.00
2022-08-20T22:52:24.423Z,21.50
2022-08-20T22:57:29.448Z,23.25
2022-08-20T23:02:32.237Z,23.25
2022-08-20T23:07:36.452Z,18.75
2022-08-20T23:12:39.475Z,17.50
2022-08-20T23:17:42.393Z,19.50
2022-08-20T23:22:46.589Z,19.25
2022-08-20T23:27:50.952Z,14.80
2022-08-20T23:32:53.758Z,16.20
2022-08-20T23:37:58.453Z,15.20
2022-08-20T23:43:01.310Z,19.00
2022-08-20T23:48:04.706Z,21.75
2022-08-20T23:53:08.917Z,21.00
2022-08-20T23:58:11.727Z,21.75
